Time;durP1;ratioP1;P1;durP2;ratioP2;P2;SDS_P1;SDS_P2;PMS_P1;PMS_P2;Temp;Humidity;BMP_temperature;BMP_pressure;BME280_temperature;BME280_humidity;BME280_pressure;Samples;Min_cycle;Max_cycle;Signal;HPM_P1;HPM_P2
2023/12/23 00:00:21;;;;;;;;;;;;;;;4.99;74.93;96091.91;109517;1252;74708;-59
2023/12/23 00:02:49;;;;;;;;;;;;;;;5.06;74.54;96090.23;109470;1251;68861;-60
2023/12/23 00:05:16;;;;;;;;;;;;;;;5.13;73.70;96091.19;109543;1252;71428;-60
2023/12/23 00:07:44;;;;;;;;;;;;;;;4.96;75.18;96092.50;109551;1252;59623;-59
2023/12/23 00:10:12;;;;;;;;;;;;;;;5.19;73.77;96093.70;109551;1252;58890;-59
2023/12/23 00:12:39;;;;;;;;;;;;;;;5.29;73.37;96097.17;109482;1253;74752;-60
2023/12/23 00:15:07;;;;;;;;;;;;;;;5.39;72.55;96101.30;109563;1252;68981;-59
2023/12/23 00:17:34;;;;;;;;;;;;;;;5.42;72.58;96100.09;109524;1252;72722;-59
2023/12/23 00:20:02;;;;;;;;;;;;;;;5.56;71.43;96101.52;109548;1252;59644;-59
2023/12/23 00:22:30;;;;;;;;;;;;;;;5.31;72.79;96098.69;109552;1253;59055;-59
2023/12/23 00:24:57;;;;;;;;;;;;;;;5.32;72.89;96096.77;109449;1253;74700;-59
2023/12/23 00:27:25;;;;;;;;;;;;;;;5.26;73.02;96096.63;109497;1252;67429;-59
2023/12/23 00:29:52;;;;;;;;;;;;;;;5.42;72.44;96098.16;109601;1252;70954;-59
2023/12/23 00:32:20;;;;;;;;;;;;;;;5.35;72.49;96094.21;109561;1252;61011;-59
2023/12/23 00:34:47;;;;;;;;;;;;;;;5.48;71.99;96098.04;109486;1252;58836;-57
2023/12/23 00:37:14;;;;;;;;;;;;;;;5.37;73.33;96103.54;109176;1255;74711;-57
2023/12/23 00:39:42;;;;;;;;;;;;;;;5.40;73.33;96109.34;109179;1255;68831;-59
2023/12/23 00:42:10;;;;;;;;;;;;;;;5.36;73.35;96109.09;109106;1255;71531;-58
2023/12/23 00:44:37;;;;;;;;;;;;;;;5.58;72.80;96111.89;109131;1256;60010;-58
2023/12/23 00:47:05;;;;;;;;;;;;;;;5.53;73.00;96110.64;109218;1254;58954;-58
2023/12/23 00:49:33;;;;;;;;;;;;;;;5.70;72.47;96112.27;109387;1256;73460;-58
2023/12/23 00:52:00;;;;;;;;;;;;;;;5.42;73.67;96109.58;109378;1253;69316;-58
2023/12/23 00:54:28;;;;;;;;;;;;;;;5.57;72.92;96104.69;109373;1254;72696;-59
2023/12/23 00:56:55;;;;;;;;;;;;;;;5.36;74.28;96109.67;109378;1254;59754;-59
2023/12/23 00:59:24;;;;;;;;;;;;;;;5.61;72.98;96111.02;109346;1254;59932;-59
2023/12/23 01:01:51;;;;;;;;;;;;;;;5.65;72.51;96109.89;109370;1254;74680;-58
2023/12/23 01:04:19;;;;;;;;;;;;;;;5.56;72.50;96112.22;109406;1253;66478;-59
2023/12/23 01:06:46;;;;;;;;;;;;;;;5.67;71.85;96113.84;109333;1253;71419;-59
2023/12/23 01:09:14;;;;;;;;;;;;;;;6.06;69.81;96116.95;109261;1255;60920;-59
2023/12/23 01:11:41;;;;;;;;;;;;;;;5.64;70.96;96118.61;109378;1254;59053;-58
2023/12/23 01:14:08;;;;;;;;;;;;;;;6.15;69.25;96123.33;109281;1253;74828;-60
2023/12/23 01:16:36;;;;;;;;;;;;;;;5.75;70.27;96116.89;109360;1252;69009;-58
2023/12/23 01:19:04;;;;;;;;;;;;;;;5.83;70.48;96114.67;109518;1252;71452;-59
2023/12/23 01:21:31;;;;;;;;;;;;;;;5.58;71.63;96110.77;109406;1253;59020;-59
2023/12/23 01:23:58;;;;;;;;;;;;;;;5.84;70.62;96114.15;109547;1252;59065;-59
2023/12/23 01:26:26;;;;;;;;;;;;;;;6.27;68.19;96110.67;109589;1253;74788;-59
2023/12/23 01:28:53;;;;;;;;;;;;;;;5.91;69.55;96108.94;109555;1253;68518;-59
2023/12/23 01:31:21;;;;;;;;;;;;;;;6.16;68.49;96113.77;109326;1254;72817;-60
2023/12/23 01:33:49;;;;;;;;;;;;;;;5.98;68.87;96108.80;109509;1253;59665;-57
2023/12/23 01:36:17;;;;;;;;;;;;;;;5.99;68.93;96107.27;109577;1253;59884;-58
2023/12/23 01:38:44;;;;;;;;;;;;;;;6.02;68.92;96108.42;109610;1253;74765;-58
2023/12/23 01:41:12;;;;;;;;;;;;;;;6.07;68.94;96109.24;109493;1253;68378;-58
2023/12/23 01:43:39;;;;;;;;;;;;;;;5.87;70.17;96114.82;109500;1253;71415;-59
2023/12/23 01:46:06;;;;;;;;;;;;;;;5.65;72.22;96114.00;109521;1253;59945;-57
2023/12/23 01:48:35;;;;;;;;;;;;;;;5.69;72.08;96115.14;109569;1252;60026;-57
2023/12/23 01:51:02;;;;;;;;;;;;;;;5.92;71.66;96112.63;109180;1253;74783;-58
2023/12/23 01:53:30;;;;;;;;;;;;;;;5.89;71.55;96106.02;109481;1253;68882;-57
2023/12/23 01:55:58;;;;;;;;;;;;;;;5.75;72.37;96108.48;109136;1253;72863;-57
2023/12/23 01:58:25;;;;;;;;;;;;;;;5.58;73.92;96105.73;109374;1253;59069;-58
2023/12/23 02:00:53;;;;;;;;;;;;;;;5.64;73.96;96111.64;109393;1252;59290;-57
2023/12/23 02:03:21;;;;;;;;;;;;;;;5.84;73.20;96112.52;109554;1252;74753;-58
2023/12/23 02:05:48;;;;;;;;;;;;;;;5.76;73.82;96118.25;109205;1253;68859;-58
2023/12/23 02:08:16;;;;;;;;;;;;;;;5.69;74.95;96116.23;109546;1252;72752;-57
2023/12/23 02:10:43;;;;;;;;;;;;;;;5.43;77.82;96117.48;109477;1252;60916;-58
2023/12/23 02:13:26;;;;;;;;;;;;;;;5.78;76.15;96119.69;109522;1252;58972;-58
2023/12/23 02:15:54;;;;;;;;;;;;;;;5.42;78.47;96122.03;109573;1252;74690;-60
2023/12/23 02:18:21;;;;;;;;;;;;;;;5.31;80.26;96117.78;109533;1252;68544;-58
2023/12/23 02:20:53;;;;;;;;;;;;;;;5.46;79.95;96119.48;109552;1252;71497;-59
2023/12/23 02:23:21;;;;;;;;;;;;;;;5.66;78.89;96121.39;109430;1253;60936;-58
2023/12/23 02:25:52;;;;;;;;;;;;;;;5.64;79.69;96123.29;109547;1252;58933;-58
2023/12/23 02:28:20;;;;;;;;;;;;;;;5.75;79.61;96120.02;109184;1253;74703;-59
2023/12/23 02:30:47;;;;;;;;;;;;;;;5.20;83.37;96111.60;109350;1252;68775;-58
2023/12/23 02:33:15;;;;;;;;;;;;;;;5.35;83.42;96117.20;109368;1253;72725;-58
2023/12/23 02:35:42;;;;;;;;;;;;;;;5.59;82.39;96124.10;109530;1253;60929;-58
2023/12/23 02:38:10;;;;;;;;;;;;;;;5.44;83.45;96121.86;109559;1253;59824;-58
2023/12/23 02:40:37;;;;;;;;;;;;;;;5.17;85.62;96123.00;109335;1252;74717;-58
2023/12/23 02:43:05;;;;;;;;;;;;;;;4.97;87.08;96123.36;109592;1253;67765;-59
2023/12/23 02:45:32;;;;;;;;;;;;;;;5.24;85.34;96131.02;109550;1253;72695;-60
2023/12/23 02:48:00;;;;;;;;;;;;;;;5.15;85.88;96136.09;109529;1253;60940;-59
2023/12/23 02:50:27;;;;;;;;;;;;;;;5.07;85.79;96132.34;109382;1253;58948;-60
2023/12/23 02:52:55;;;;;;;;;;;;;;;5.24;85.03;96134.42;109501;1253;74736;-62
2023/12/23 02:55:23;;;;;;;;;;;;;;;5.23;84.50;96132.73;109380;1252;67348;-60
2023/12/23 02:57:50;;;;;;;;;;;;;;;5.34;83.74;96136.33;109341;1253;72782;-60
2023/12/23 03:00:18;;;;;;;;;;;;;;;5.19;83.58;96124.06;108996;1253;59687;-59
2023/12/23 03:02:45;;;;;;;;;;;;;;;5.54;81.78;96133.12;108703;1253;1002481;-60
2023/12/23 03:05:14;;;;;;;;;;;;;;;5.29;82.38;96131.42;109385;1253;73340;-59
2023/12/23 03:07:42;;;;;;;;;;;;;;;5.14;82.96;96125.52;109435;1253;66459;-62
2023/12/23 03:10:10;;;;;;;;;;;;;;;5.38;81.26;96125.48;109511;1253;71443;-59
2023/12/23 03:12:37;;;;;;;;;;;;;;;5.66;79.17;96126.48;109345;1256;60927;-59
2023/12/23 03:15:05;;;;;;;;;;;;;;;5.62;78.96;96130.00;109320;1253;59012;-60
2023/12/23 03:17:34;;;;;;;;;;;;;;;5.50;79.20;96130.60;108598;1254;1002314;-62
2023/12/23 03:20:01;;;;;;;;;;;;;;;5.47;79.70;96130.64;109364;1254;68588;-60
2023/12/23 03:22:29;;;;;;;;;;;;;;;5.11;81.89;96125.80;109381;1253;72728;-59
2023/12/23 03:24:56;;;;;;;;;;;;;;;5.44;80.49;96126.83;109362;1256;60962;-59
2023/12/23 03:27:24;;;;;;;;;;;;;;;5.28;81.39;96129.77;109359;1254;59021;-59
2023/12/23 03:29:51;;;;;;;;;;;;;;;5.35;81.46;96134.69;109386;1253;73765;-59
2023/12/23 03:32:19;;;;;;;;;;;;;;;5.27;81.81;96135.19;109359;1254;67288;-59
2023/12/23 03:34:46;;;;;;;;;;;;;;;5.01;84.02;96139.02;108952;1254;72749;-59
2023/12/23 03:37:14;;;;;;;;;;;;;;;5.06;83.64;96145.97;109332;1255;60139;-59
2023/12/23 03:39:43;;;;;;;;;;;;;;;5.30;82.08;96145.17;109337;1254;59856;-59
2023/12/23 03:42:11;;;;;;;;;;;;;;;5.21;82.19;96144.83;109418;1253;73443;-60
2023/12/23 03:44:38;;;;;;;;;;;;;;;5.21;81.92;96145.39;109463;1253;67533;-60
2023/12/23 03:47:06;;;;;;;;;;;;;;;5.35;81.24;96148.21;109552;1253;72781;-61
2023/12/23 03:49:33;;;;;;;;;;;;;;;5.43;80.54;96150.95;109427;1253;60956;-62
2023/12/23 03:52:01;;;;;;;;;;;;;;;5.46;80.12;96152.25;109446;1252;60009;-60
2023/12/23 03:54:29;;;;;;;;;;;;;;;5.62;79.25;96159.15;109376;1253;74745;-60
2023/12/23 03:56:56;;;;;;;;;;;;;;;5.29;80.85;96157.27;109443;1252;68506;-59
2023/12/23 03:59:24;;;;;;;;;;;;;;;5.48;80.76;96154.42;109118;1254;72725;-60
2023/12/23 04:01:51;;;;;;;;;;;;;;;5.64;79.55;96154.37;109141;1253;61150;-59
2023/12/23 04:04:20;;;;;;;;;;;;;;;5.28;81.30;96152.27;109445;1253;59351;-59
2023/12/23 04:06:47;;;;;;;;;;;;;;;5.33;81.46;96158.04;109354;1253;73422;-59
2023/12/23 04:09:16;;;;;;;;;;;;;;;5.57;79.84;96154.64;109577;1252;67403;-59
2023/12/23 04:11:43;;;;;;;;;;;;;;;5.42;80.57;96158.20;109502;1253;71443;-60
2023/12/23 04:14:11;;;;;;;;;;;;;;;5.38;80.70;96159.19;109342;1253;59968;-60
2023/12/23 04:16:41;;;;;;;;;;;;;;;5.68;78.97;96167.77;109482;1253;59858;-60
2023/12/23 04:19:09;;;;;;;;;;;;;;;5.26;80.94;96163.25;109448;1255;74732;-62
2023/12/23 04:21:36;;;;;;;;;;;;;;;5.37;80.71;96169.59;109579;1253;68812;-62
2023/12/23 04:24:04;;;;;;;;;;;;;;;5.54;79.30;96166.80;109158;1253;72731;-61
2023/12/23 04:26:32;;;;;;;;;;;;;;;5.30;80.50;96173.54;109554;1253;60895;-62
2023/12/23 04:29:00;;;;;;;;;;;;;;;5.48;79.63;96167.16;109494;1253;59887;-63
2023/12/23 04:31:27;;;;;;;;;;;;;;;5.32;80.19;96165.77;109153;1253;74197;-60
2023/12/23 04:33:55;;;;;;;;;;;;;;;5.19;80.36;96162.08;109513;1252;67591;-62
2023/12/23 04:36:23;;;;;;;;;;;;;;;5.44;78.84;96158.75;109435;1253;72695;-62
2023/12/23 04:38:50;;;;;;;;;;;;;;;5.40;78.87;96157.13;109434;1252;60942;-63
2023/12/23 04:41:18;;;;;;;;;;;;;;;5.25;79.01;96163.57;109564;1253;58975;-59
2023/12/23 04:43:45;;;;;;;;;;;;;;;5.44;78.17;96163.73;109446;1253;74818;-61
2023/12/23 04:46:13;;;;;;;;;;;;;;;5.42;77.79;96170.31;109177;1253;67745;-62
2023/12/23 04:48:41;;;;;;;;;;;;;;;5.16;78.83;96165.35;109124;1253;72762;-59
2023/12/23 04:51:08;;;;;;;;;;;;;;;5.39;77.94;96170.29;109479;1253;61119;-60
2023/12/23 04:53:36;;;;;;;;;;;;;;;5.39;77.57;96168.70;108365;1253;1002475;-59
2023/12/23 04:56:03;;;;;;;;;;;;;;;5.38;77.82;96165.68;109223;1253;73842;-59
2023/12/23 04:58:31;;;;;;;;;;;;;;;5.28;78.13;96167.84;109350;1252;68840;-59
2023/12/23 05:00:58;;;;;;;;;;;;;;;5.22;78.86;96169.89;109331;1252;70773;-62
2023/12/23 05:03:26;;;;;;;;;;;;;;;5.21;78.84;96168.32;109376;1252;60950;-59
2023/12/23 05:05:54;;;;;;;;;;;;;;;5.15;78.20;96172.34;109496;1253;59049;-59
2023/12/23 05:08:21;;;;;;;;;;;;;;;5.13;78.42;96176.73;109243;1253;74742;-59
2023/12/23 05:10:49;;;;;;;;;;;;;;;5.10;78.78;96174.21;109395;1254;68699;-62
2023/12/23 05:13:17;;;;;;;;;;;;;;;5.16;77.79;96176.67;109296;1254;71570;-59
2023/12/23 05:15:45;;;;;;;;;;;;;;;5.31;76.80;96182.28;109336;1254;60967;-60
2023/12/23 05:18:12;;;;;;;;;;;;;;;5.16;77.43;96188.86;109211;1254;58991;-60
2023/12/23 05:20:40;;;;;;;;;;;;;;;5.44;75.88;96189.54;109180;1254;73443;-59
2023/12/23 05:23:07;;;;;;;;;;;;;;;5.34;75.59;96187.33;109137;1253;67860;-59
2023/12/23 05:25:36;;;;;;;;;;;;;;;5.15;76.42;96196.11;109256;1255;105756;-59
2023/12/23 05:28:03;;;;;;;;;;;;;;;5.05;76.77;96195.05;109461;1253;59209;-61
2023/12/23 05:30:31;;;;;;;;;;;;;;;5.07;77.01;96196.98;109309;1253;58952;-59
2023/12/23 05:32:58;;;;;;;;;;;;;;;5.17;75.48;96199.66;109481;1253;74766;-63
2023/12/23 05:35:26;;;;;;;;;;;;;;;5.04;76.71;96200.02;109454;1252;67337;-59
2023/12/23 05:37:53;;;;;;;;;;;;;;;5.21;75.42;96208.20;109482;1253;71499;-59
2023/12/23 05:40:21;;;;;;;;;;;;;;;5.05;75.67;96206.38;109408;1254;60197;-62
2023/12/23 05:42:48;;;;;;;;;;;;;;;5.16;75.20;96208.42;109467;1253;59577;-59
2023/12/23 05:45:16;;;;;;;;;;;;;;;5.19;74.33;96212.45;109471;1252;74698;-59
2023/12/23 05:47:44;;;;;;;;;;;;;;;5.30;73.47;96215.55;109560;1251;68541;-59
2023/12/23 05:50:11;;;;;;;;;;;;;;;5.23;73.32;96216.51;109600;1252;72706;-59
2023/12/23 05:52:39;;;;;;;;;;;;;;;5.14;73.78;96223.85;109498;1254;60960;-59
2023/12/23 05:55:06;;;;;;;;;;;;;;;5.12;73.20;96226.52;109488;1252;59877;-58
2023/12/23 05:57:34;;;;;;;;;;;;;;;4.96;74.38;96223.38;109417;1253;73431;-59
2023/12/23 06:00:03;;;;;;;;;;;;;;;5.09;73.44;96227.24;109592;1252;67216;-59
2023/12/23 06:02:37;;;;;;;;;;;;;;;4.98;73.72;96233.73;109211;1252;72763;-59
2023/12/23 06:05:05;;;;;;;;;;;;;;;4.99;73.53;96243.52;109565;1252;60900;-59
2023/12/23 06:07:34;;;;;;;;;;;;;;;4.94;73.98;96244.77;109473;1252;59039;-58
2023/12/23 06:10:01;;;;;;;;;;;;;;;4.92;74.06;96250.81;109610;1252;74835;-60
2023/12/23 06:12:29;;;;;;;;;;;;;;;5.00;73.40;96259.86;109590;1253;68927;-60
2023/12/23 06:14:57;;;;;;;;;;;;;;;4.91;73.28;96258.49;109591;1252;71558;-58
2023/12/23 06:17:25;;;;;;;;;;;;;;;5.29;71.87;96275.02;109548;1252;61362;-60
2023/12/23 06:19:53;;;;;;;;;;;;;;;5.14;71.53;96275.20;109628;1252;59871;-59
2023/12/23 06:22:20;;;;;;;;;;;;;;;4.91;72.93;96268.34;109473;1252;74512;-57
2023/12/23 06:24:48;;;;;;;;;;;;;;;4.91;72.67;96267.70;109597;1252;68512;-59
2023/12/23 06:27:15;;;;;;;;;;;;;;;5.17;71.43;96274.17;109582;1252;71544;-60
2023/12/23 06:29:43;;;;;;;;;;;;;;;5.20;70.95;96276.98;109560;1253;60911;-59
2023/12/23 06:32:10;;;;;;;;;;;;;;;5.31;70.67;96278.30;109602;1252;58975;-58
2023/12/23 06:34:37;;;;;;;;;;;;;;;5.26;70.54;96275.88;109630;1253;74722;-58
2023/12/23 06:37:05;;;;;;;;;;;;;;;5.34;70.06;96279.83;109609;1252;68825;-58
2023/12/23 06:39:32;;;;;;;;;;;;;;;5.34;69.89;96280.20;109543;1252;71790;-58
2023/12/23 06:42:00;;;;;;;;;;;;;;;5.30;69.99;96282.55;109508;1254;60939;-58
2023/12/23 06:44:27;;;;;;;;;;;;;;;5.25;70.37;96280.90;109577;1252;60310;-60
2023/12/23 06:46:55;;;;;;;;;;;;;;;5.33;70.07;96287.92;109583;1252;73410;-60
2023/12/23 06:49:24;;;;;;;;;;;;;;;5.35;69.91;96284.16;109516;1252;67613;-61
2023/12/23 06:51:51;;;;;;;;;;;;;;;5.18;69.76;96285.23;109572;1252;73138;-60
2023/12/23 06:54:19;;;;;;;;;;;;;;;5.20;69.94;96287.02;109463;1254;59632;-59
2023/12/23 06:56:46;;;;;;;;;;;;;;;5.52;68.64;96298.63;109506;1251;58909;-59
2023/12/23 06:59:14;;;;;;;;;;;;;;;5.32;69.18;96301.77;109643;1252;74690;-60
2023/12/23 07:01:41;;;;;;;;;;;;;;;5.65;67.65;96306.98;109514;1252;69011;-60
2023/12/23 07:04:09;;;;;;;;;;;;;;;5.51;67.61;96305.73;109568;1253;72742;-60
2023/12/23 07:06:37;;;;;;;;;;;;;;;5.38;68.42;96311.97;109628;1252;59646;-58
2023/12/23 07:09:05;;;;;;;;;;;;;;;5.44;67.93;96315.13;109226;1253;59847;-61
2023/12/23 07:11:35;;;;;;;;;;;;;;;5.61;67.90;96319.61;109380;1252;74719;-57
2023/12/23 07:14:03;;;;;;;;;;;;;;;5.86;66.09;96327.87;109586;1252;67581;-58
2023/12/23 07:16:30;;;;;;;;;;;;;;;5.40;67.57;96320.38;109593;1252;72687;-58
2023/12/23 07:18:58;;;;;;;;;;;;;;;5.57;67.54;96325.41;109254;1253;60100;-58
2023/12/23 07:21:25;;;;;;;;;;;;;;;5.31;67.85;96324.35;109555;1252;59861;-58
2023/12/23 07:23:53;;;;;;;;;;;;;;;5.38;67.26;96325.27;109168;1257;74653;-58
2023/12/23 07:26:22;;;;;;;;;;;;;;;5.59;66.21;96335.09;109336;1254;68524;-58
2023/12/23 07:28:49;;;;;;;;;;;;;;;5.49;66.12;96334.19;109345;1255;71722;-60
2023/12/23 07:31:18;;;;;;;;;;;;;;;5.57;65.83;96342.05;109354;1256;59672;-59
2023/12/23 07:33:46;;;;;;;;;;;;;;;5.86;63.83;96345.73;109322;1255;59171;-59
2023/12/23 07:36:14;;;;;;;;;;;;;;;5.88;63.90;96348.02;109308;1254;73190;-62
2023/12/23 07:38:42;;;;;;;;;;;;;;;5.77;63.73;96345.70;109197;1254;67370;-59
2023/12/23 07:41:11;;;;;;;;;;;;;;;5.24;66.05;96342.41;109223;1254;72743;-60
2023/12/23 07:43:38;;;;;;;;;;;;;;;5.17;66.78;96350.98;109333;1257;59648;-61
2023/12/23 07:46:06;;;;;;;;;;;;;;;5.40;65.93;96349.90;109111;1254;59856;-61
2023/12/23 07:48:33;;;;;;;;;;;;;;;5.80;64.96;96357.41;109240;1254;74681;-58
2023/12/23 07:51:06;;;;;;;;;;;;;;;6.15;62.85;96359.55;109378;1254;68847;-58
2023/12/23 07:53:33;;;;;;;;;;;;;;;5.84;64.44;96366.30;109051;1254;72745;-61
2023/12/23 07:56:01;;;;;;;;;;;;;;;5.95;64.25;96369.48;109552;1253;59674;-59
2023/12/23 07:58:28;;;;;;;;;;;;;;;5.76;64.85;96373.94;109627;1252;58973;-59
2023/12/23 08:00:55;;;;;;;;;;;;;;;5.83;64.91;96380.17;109543;1253;74722;-61
2023/12/23 08:03:23;;;;;;;;;;;;;;;5.75;65.64;96377.20;109546;1253;67544;-60
2023/12/23 08:05:50;;;;;;;;;;;;;;;5.31;66.98;96370.83;109619;1252;71571;-60
2023/12/23 08:08:18;;;;;;;;;;;;;;;5.48;66.85;96370.02;109449;1254;59063;-60
2023/12/23 08:10:45;;;;;;;;;;;;;;;5.39;67.11;96364.50;109226;1255;58927;-59
2023/12/23 08:13:13;;;;;;;;;;;;;;;5.61;66.29;96370.27;109289;1254;73460;-60
2023/12/23 08:15:40;;;;;;;;;;;;;;;5.60;66.30;96366.83;109220;1254;70636;-62
2023/12/23 08:18:08;;;;;;;;;;;;;;;5.59;66.13;96364.56;109319;1254;72727;-60
2023/12/23 08:20:35;;;;;;;;;;;;;;;5.34;67.29;96371.73;109220;1255;59832;-60
2023/12/23 08:23:03;;;;;;;;;;;;;;;5.55;65.94;96372.20;109200;1255;59887;-60
2023/12/23 08:25:31;;;;;;;;;;;;;;;5.52;66.10;96372.65;109275;1255;74716;-59
2023/12/23 08:27:58;;;;;;;;;;;;;;;5.63;65.02;96377.36;109096;1256;66240;-60
2023/12/23 08:30:25;;;;;;;;;;;;;;;5.60;65.18;96374.70;109229;1255;71762;-60
2023/12/23 08:32:53;;;;;;;;;;;;;;;5.78;65.86;96383.70;109181;1256;59636;-61
2023/12/23 08:35:21;;;;;;;;;;;;;;;5.56;67.28;96382.92;109342;1255;59863;-58
2023/12/23 08:37:49;;;;;;;;;;;;;;;5.79;67.58;96391.38;109221;1256;73439;-59
2023/12/23 08:40:17;;;;;;;;;;;;;;;5.70;67.98;96396.84;109407;1251;68876;-60
2023/12/23 08:42:45;;;;;;;;;;;;;;;5.78;67.92;96395.17;109596;1252;71408;-63
2023/12/23 08:45:12;;;;;;;;;;;;;;;5.66;68.65;96397.38;109604;1252;59296;-60
2023/12/23 08:47:40;;;;;;;;;;;;;;;5.32;70.62;96394.05;109561;1253;59917;-60
2023/12/23 08:50:07;;;;;;;;;;;;;;;5.45;69.99;96397.63;109599;1256;74776;-59
2023/12/23 08:52:35;;;;;;;;;;;;;;;5.42;69.81;96400.66;109566;1253;67641;-60
2023/12/23 08:55:03;;;;;;;;;;;;;;;5.40;69.95;96398.41;109642;1252;71405;-61
2023/12/23 08:57:31;;;;;;;;;;;;;;;5.51;69.26;96403.47;109256;1256;60950;-60
2023/12/23 08:59:58;;;;;;;;;;;;;;;5.28;70.52;96402.48;109575;1253;58941;-61
2023/12/23 09:02:26;;;;;;;;;;;;;;;5.33;70.99;96403.73;109614;1252;74698;-61
2023/12/23 09:04:55;;;;;;;;;;;;;;;5.40;70.84;96410.39;109528;1251;68828;-62
2023/12/23 09:07:22;;;;;;;;;;;;;;;5.19;72.10;96408.14;109591;1252;72744;-60
2023/12/23 09:09:50;;;;;;;;;;;;;;;5.24;71.87;96408.38;109479;1255;59635;-59
2023/12/23 09:12:19;;;;;;;;;;;;;;;5.46;71.49;96407.40;109542;1253;59851;-59
2023/12/23 09:14:49;;;;;;;;;;;;;;;5.21;72.72;96412.98;109526;1253;73417;-59
2023/12/23 09:17:16;;;;;;;;;;;;;;;5.55;71.54;96411.94;109555;1253;67641;-59
2023/12/23 09:19:44;;;;;;;;;;;;;;;5.83;71.12;96409.51;109601;1253;72712;-59
2023/12/23 09:22:11;;;;;;;;;;;;;;;5.67;71.33;96408.61;109607;1254;59641;-59
2023/12/23 09:24:41;;;;;;;;;;;;;;;5.68;71.95;96407.59;109526;1253;59862;-58
2023/12/23 09:27:08;;;;;;;;;;;;;;;5.57;73.13;96412.17;109534;1251;73453;-62
2023/12/23 09:29:36;;;;;;;;;;;;;;;5.54;74.71;96411.86;109620;1252;68812;-61
2023/12/23 09:32:03;;;;;;;;;;;;;;;5.38;75.53;96415.16;109556;1252;72742;-59
2023/12/23 09:34:31;;;;;;;;;;;;;;;5.29;77.01;96417.27;109569;1253;60966;-59
2023/12/23 09:36:59;;;;;;;;;;;;;;;5.39;76.96;96412.73;109550;1253;58955;-59
2023/12/23 09:39:28;;;;;;;;;;;;;;;5.34;76.95;96403.11;109489;1252;74684;-62
2023/12/23 09:41:55;;;;;;;;;;;;;;;5.38;77.23;96412.28;109598;1252;68835;-61
2023/12/23 09:44:23;;;;;;;;;;;;;;;5.85;75.45;96416.27;109544;1253;72720;-60
2023/12/23 09:46:50;;;;;;;;;;;;;;;5.46;76.84;96412.40;109565;1252;59985;-60
2023/12/23 09:49:18;;;;;;;;;;;;;;;5.41;77.48;96412.88;109416;1253;59010;-60
2023/12/23 09:51:46;;;;;;;;;;;;;;;5.32;77.87;96415.38;109499;1253;74691;-59
2023/12/23 09:54:15;;;;;;;;;;;;;;;5.39;77.56;96412.32;109502;1252;68860;-59
2023/12/23 09:56:42;;;;;;;;;;;;;;;5.45;77.57;96417.42;109414;1253;72705;-59
2023/12/23 09:59:10;;;;;;;;;;;;;;;5.33;77.91;96416.89;109356;1252;60968;-60
2023/12/23 10:01:37;;;;;;;;;;;;;;;5.41;77.93;96425.11;109502;1252;59969;-60
2023/12/23 10:04:05;;;;;;;;;;;;;;;5.30;79.50;96421.86;109497;1252;74724;-61
2023/12/23 10:06:32;;;;;;;;;;;;;;;5.27;79.61;96420.70;109437;1252;67660;-60
2023/12/23 10:09:00;;;;;;;;;;;;;;;5.24;78.26;96416.98;109570;1252;72755;-61
2023/12/23 10:11:27;;;;;;;;;;;;;;;5.59;76.26;96408.77;109367;1256;59682;-61
2023/12/23 10:13:55;;;;;;;;;;;;;;;5.57;75.53;96417.02;109641;1252;59890;-61
2023/12/23 10:16:23;;;;;;;;;;;;;;;5.68;73.93;96418.31;109534;1253;73360;-61
2023/12/23 10:18:50;;;;;;;;;;;;;;;5.56;73.89;96424.43;109564;1252;68538;-63
2023/12/23 10:21:18;;;;;;;;;;;;;;;5.66;74.29;96423.96;109414;1252;72729;-60
2023/12/23 10:23:45;;;;;;;;;;;;;;;5.68;73.97;96424.86;109403;1255;59621;-61
2023/12/23 10:26:14;;;;;;;;;;;;;;;5.54;74.02;96423.27;109279;1253;60337;-66
2023/12/23 10:28:42;;;;;;;;;;;;;;;5.55;75.05;96424.55;109225;1253;73837;-60
2023/12/23 10:31:13;;;;;;;;;;;;;;;5.31;77.11;96421.31;109330;1253;67594;-60
2023/12/23 10:33:42;;;;;;;;;;;;;;;5.13;83.34;96424.57;109330;1253;72021;-61
2023/12/23 10:36:09;;;;;;;;;;;;;;;5.23;82.27;96419.02;109098;1256;60209;-61
2023/12/23 10:38:36;;;;;;;;;;;;;;;4.92;84.06;96421.98;109056;1256;59846;-60
2023/12/23 10:41:09;;;;;;;;;;;;;;;5.01;84.52;96425.34;109237;1256;74760;-61
2023/12/23 10:43:37;;;;;;;;;;;;;;;5.04;84.68;96422.48;109192;1256;67637;-62
2023/12/23 10:46:05;;;;;;;;;;;;;;;4.93;84.61;96424.95;109112;1256;71467;-61
2023/12/23 10:48:32;;;;;;;;;;;;;;;4.98;85.55;96427.25;108929;1257;60662;-62
2023/12/23 10:51:00;;;;;;;;;;;;;;;5.00;85.54;96424.08;108966;1259;58978;-59
2023/12/23 10:53:28;;;;;;;;;;;;;;;5.19;84.61;96422.93;108988;1258;77011;-60
2023/12/23 10:55:56;;;;;;;;;;;;;;;4.98;84.21;96426.17;109043;1259;68780;-60
2023/12/23 10:58:23;;;;;;;;;;;;;;;5.14;83.17;96429.52;109007;1259;71452;-62
2023/12/23 11:00:51;;;;;;;;;;;;;;;5.00;82.77;96426.67;108985;1259;60961;-59
2023/12/23 11:03:19;;;;;;;;;;;;;;;5.16;82.80;96430.80;108919;1258;60018;-61
2023/12/23 11:05:46;;;;;;;;;;;;;;;5.21;82.45;96428.63;109007;1259;74697;-60
2023/12/23 11:08:14;;;;;;;;;;;;;;;5.32;81.57;96432.03;109148;1257;67578;-60
2023/12/23 11:10:44;;;;;;;;;;;;;;;5.42;80.10;96436.64;109123;1256;72715;-62
2023/12/23 11:13:13;;;;;;;;;;;;;;;5.42;79.99;96439.19;109261;1260;61924;-59
2023/12/23 11:15:40;;;;;;;;;;;;;;;5.32;78.83;96440.50;109154;1257;59017;-60
2023/12/23 11:18:08;;;;;;;;;;;;;;;5.49;78.50;96441.60;109125;1256;72871;-60
2023/12/23 11:20:45;;;;;;;;;;;;;;;5.34;78.50;96444.50;109242;1254;68945;-60
2023/12/23 11:23:28;;;;;;;;;;;;;;;5.26;77.61;96445.28;109484;1254;71111;-61
2023/12/23 11:25:56;;;;;;;;;;;;;;;5.49;76.88;96452.00;109364;1253;59006;-60
2023/12/23 11:28:24;;;;;;;;;;;;;;;5.46;76.17;96451.70;109628;1251;59853;-62
2023/12/23 11:30:52;;;;;;;;;;;;;;;5.38;77.63;96456.97;109640;1251;73420;-60
2023/12/23 11:33:21;;;;;;;;;;;;;;;5.36;76.73;96451.76;109627;1251;67324;-61
2023/12/23 11:35:49;;;;;;;;;;;;;;;5.29;75.13;96464.52;109627;1254;71470;-60
2023/12/23 11:38:17;;;;;;;;;;;;;;;5.15;74.49;96461.88;109621;1253;60975;-60
2023/12/23 11:40:44;;;;;;;;;;;;;;;5.35;73.55;96463.27;107125;1252;1003028;-60
2023/12/23 11:43:11;;;;;;;;;;;;;;;5.49;71.90;96464.16;109661;1251;74717;-60
2023/12/23 11:45:39;;;;;;;;;;;;;;;5.53;70.92;96464.14;109204;1251;68806;-64
2023/12/23 11:48:07;;;;;;;;;;;;;;;5.58;70.14;96472.12;109550;1253;72691;-60
2023/12/23 11:50:34;;;;;;;;;;;;;;;5.63;69.23;96466.70;109520;1256;60916;-60
2023/12/23 11:53:02;;;;;;;;;;;;;;;5.65;68.89;96474.23;109526;1254;60013;-64
2023/12/23 11:55:29;;;;;;;;;;;;;;;5.62;68.37;96472.64;109576;1252;74716;-61
2023/12/23 11:57:57;;;;;;;;;;;;;;;5.72;68.11;96474.71;109354;1251;69273;-64
2023/12/23 12:00:24;;;;;;;;;;;;;;;5.98;66.86;96475.74;109575;1252;72701;-64
2023/12/23 12:02:52;;;;;;;;;;;;;;;5.86;65.73;96469.76;109503;1253;60923;-61
2023/12/23 12:05:20;;;;;;;;;;;;;;;5.84;65.70;96472.55;109613;1251;59039;-62
2023/12/23 12:07:47;;;;;;;;;;;;;;;5.75;65.57;96478.33;109477;1252;74733;-60
2023/12/23 12:10:15;;;;;;;;;;;;;;;5.56;66.12;96470.67;109603;1252;68907;-61
2023/12/23 12:12:42;;;;;;;;;;;;;;;5.49;66.41;96477.40;109539;1254;72733;-61
2023/12/23 12:15:10;;;;;;;;;;;;;;;5.95;65.76;96482.48;109560;1253;60971;-62
2023/12/23 12:17:37;;;;;;;;;;;;;;;5.69;66.79;96484.67;109543;1255;59034;-60
2023/12/23 12:20:05;;;;;;;;;;;;;;;5.60;67.71;96487.95;109620;1253;73056;-64
2023/12/23 12:22:33;;;;;;;;;;;;;;;5.53;68.67;96489.51;109570;1252;68209;-61
2023/12/23 12:25:00;;;;;;;;;;;;;;;5.72;67.90;96497.16;109536;1253;72168;-62
2023/12/23 12:27:28;;;;;;;;;;;;;;;5.65;67.81;96499.81;109569;1253;60388;-62
2023/12/23 12:29:55;;;;;;;;;;;;;;;5.46;67.93;96494.65;109589;1252;59221;-61
2023/12/23 12:32:23;;;;;;;;;;;;;;;5.41;67.36;96498.56;109605;1252;74700;-61
2023/12/23 12:34:59;;;;;;;;;;;;;;;5.46;67.35;96505.53;109595;1255;67570;-61
2023/12/23 12:37:27;;;;;;;;;;;;;;;5.39;66.99;96505.58;109604;1253;71091;-61
2023/12/23 12:39:54;;;;;;;;;;;;;;;5.74;65.64;96509.27;109266;1254;60965;-64
2023/12/23 12:42:23;;;;;;;;;;;;;;;5.64;65.68;96505.43;109603;1253;58873;-61
2023/12/23 12:44:52;;;;;;;;;;;;;;;5.63;66.24;96510.86;109332;1253;74734;-61
2023/12/23 12:47:20;;;;;;;;;;;;;;;5.22;68.45;96512.48;109535;1252;67780;-62